createdAt,value
2022-09-09T00:02:28.420Z,100.00
2022-09-09T00:05:14.800Z,100.00
2022-09-09T00:07:55.170Z,100.00
2022-09-09T00:10:39.755Z,100.00
2022-09-09T00:13:11.542Z,100.00
2022-09-09T00:15:54.986Z,100.00
2022-09-09T00:18:47.702Z,100.00
2022-09-09T00:21:15.866Z,100.00
2022-09-09T00:23:52.516Z,100.00
2022-09-09T00:26:40.492Z,100.00
2022-09-09T00:29:23.021Z,100.00
2022-09-09T00:31:49.511Z,100.00
2022-09-09T00:34:20.735Z,100.00
2022-09-09T00:36:49.691Z,100.00
2022-09-09T00:39:39.717Z,100.00
2022-09-09T00:42:24.581Z,100.00
2022-09-09T00:44:56.710Z,100.00
2022-09-09T00:47:47.511Z,100.00
2022-09-09T00:50:31.207Z,100.00
2022-09-09T00:53:13.331Z,100.00
2022-09-09T00:55:54.416Z,100.00
2022-09-09T00:58:20.199Z,100.00
2022-09-09T01:01:03.972Z,100.00
2022-09-09T01:03:38.535Z,100.00
2022-09-09T01:06:21.530Z,100.00
2022-09-09T01:09:15.917Z,100.00
2022-09-09T01:11:55.635Z,100.00
2022-09-09T01:14:36.721Z,100.00
2022-09-09T01:17:15.376Z,100.00
2022-09-09T01:19:43.847Z,100.00
2022-09-09T01:22:30.362Z,100.00
2022-09-09T01:25:26.010Z,100.00
2022-09-09T01:27:55.800Z,100.00
2022-09-09T01:30:22.501Z,100.00
2022-09-09T01:32:55.107Z,100.00
2022-09-09T01:35:43.296Z,100.00
2022-09-09T01:38:09.481Z,100.00
2022-09-09T01:40:35.863Z,100.00
2022-09-09T01:43:01.953Z,100.00
2022-09-09T01:45:28.285Z,100.00
2022-09-09T01:47:54.051Z,100.00
2022-09-09T01:50:21.226Z,100.00
2022-09-09T01:52:51.700Z,100.00
2022-09-09T01:55:21.571Z,100.00
2022-09-09T01:57:59.445Z,100.00
2022-09-09T02:00:25.461Z,100.00
2022-09-09T02:03:05.900Z,100.00
2022-09-09T02:05:37.813Z,100.00
2022-09-09T02:08:23.569Z,100.00
2022-09-09T02:10:57.904Z,100.00
2022-09-09T02:13:24.387Z,100.00
2022-09-09T02:15:58.172Z,100.00
2022-09-09T02:18:30.643Z,100.00
2022-09-09T02:20:58.839Z,100.00
2022-09-09T02:23:24.891Z,100.00
2022-09-09T02:25:53.538Z,100.00
2022-09-09T02:28:23.529Z,100.00
2022-09-09T02:30:55.373Z,100.00
2022-09-09T02:33:27.848Z,100.00
2022-09-09T02:36:03.659Z,100.00
2022-09-09T02:38:36.173Z,100.00
2022-09-09T02:41:02.403Z,100.00
2022-09-09T02:43:34.928Z,100.00
2022-09-09T02:46:18.990Z,100.00
2022-09-09T02:48:55.989Z,100.00
2022-09-09T02:51:32.379Z,100.00
2022-09-09T02:54:10.994Z,100.00
2022-09-09T02:56:42.419Z,100.00
2022-09-09T02:59:08.357Z,100.00
2022-09-09T03:01:35.899Z,100.00
2022-09-09T03:04:05.661Z,100.00
2022-09-09T03:06:31.419Z,100.00
2022-09-09T03:08:59.300Z,100.00
2022-09-09T03:11:25.107Z,100.00
2022-09-09T03:13:50.924Z,100.00
2022-09-09T03:16:16.718Z,100.00
2022-09-09T03:18:42.891Z,100.00
2022-09-09T03:21:08.675Z,100.00
2022-09-09T03:23:34.443Z,100.00
2022-09-09T03:26:00.348Z,100.00
2022-09-09T03:28:31.218Z,100.00
2022-09-09T03:31:06.479Z,100.00
2022-09-09T03:33:32.225Z,100.00
2022-09-09T03:35:58.226Z,100.00
2022-09-09T03:38:24.574Z,100.00
2022-09-09T03:40:55.685Z,100.00
2022-09-09T03:43:25.558Z,100.00
2022-09-09T03:45:51.683Z,100.00
2022-09-09T03:48:18.890Z,100.00
2022-09-09T03:50:50.300Z,100.00
2022-09-09T03:53:17.868Z,100.00
2022-09-09T03:55:48.259Z,100.00
2022-09-09T03:58:15.416Z,100.00
2022-09-09T04:00:43.206Z,100.00
2022-09-09T04:03:10.036Z,100.00
2022-09-09T04:05:39.749Z,100.00
2022-09-09T04:08:08.795Z,100.00
2022-09-09T04:10:37.380Z,100.00
2022-09-09T04:13:04.977Z,100.00
2022-09-09T04:15:31.590Z,100.00
2022-09-09T04:17:57.368Z,100.00
2022-09-09T04:20:26.061Z,100.00
2022-09-09T04:22:51.777Z,100.00
2022-09-09T04:25:17.574Z,100.00
2022-09-09T04:27:43.450Z,100.00
2022-09-09T04:30:10.391Z,100.00
2022-09-09T04:32:37.160Z,100.00
2022-09-09T04:35:03.527Z,100.00
2022-09-09T04:37:29.375Z,100.00
2022-09-09T04:39:55.175Z,100.00
2022-09-09T04:42:21.050Z,100.00
2022-09-09T04:44:46.839Z,100.00
2022-09-09T04:47:13.396Z,100.00
2022-09-09T04:49:39.510Z,100.00
2022-09-09T04:52:05.465Z,100.00
2022-09-09T04:54:31.243Z,100.00
2022-09-09T04:56:57.008Z,100.00
2022-09-09T04:59:22.760Z,100.00
2022-09-09T05:01:50.494Z,100.00
2022-09-09T05:04:16.643Z,100.00
2022-09-09T05:06:42.595Z,100.00
2022-09-09T05:09:09.355Z,100.00
2022-09-09T05:11:38.703Z,100.00
2022-09-09T05:14:05.070Z,100.00
2022-09-09T05:16:31.078Z,100.00
2022-09-09T05:18:57.751Z,100.00
2022-09-09T05:21:26.841Z,100.00
2022-09-09T05:23:52.690Z,100.00
2022-09-09T05:26:20.970Z,100.00
2022-09-09T05:28:47.308Z,100.00
2022-09-09T05:31:15.012Z,100.00
2022-09-09T05:33:43.251Z,100.00
2022-09-09T05:36:14.677Z,100.00
2022-09-09T05:38:41.284Z,100.00
2022-09-09T05:41:08.121Z,100.00
2022-09-09T05:43:35.976Z,100.00
2022-09-09T05:46:09.945Z,100.00
2022-09-09T05:48:37.996Z,100.00
2022-09-09T05:51:07.104Z,100.00
2022-09-09T05:53:34.380Z,100.00
2022-09-09T05:56:04.375Z,100.00
2022-09-09T05:58:34.517Z,100.00
2022-09-09T06:01:07.268Z,100.00
2022-09-09T06:03:37.330Z,100.00
2022-09-09T06:06:05.908Z,100.00
2022-09-09T06:08:32.648Z,100.00
2022-09-09T06:11:06.106Z,100.00
2022-09-09T06:13:32.840Z,100.00
2022-09-09T06:15:59.874Z,100.00
2022-09-09T06:18:26.341Z,100.00
2022-09-09T06:20:59.240Z,100.00
2022-09-09T06:23:25.668Z,100.00
2022-09-09T06:25:52.324Z,100.00
2022-09-09T06:28:19.259Z,100.00
2022-09-09T06:30:45.391Z,100.00
2022-09-09T06:33:11.122Z,100.00
2022-09-09T06:35:36.868Z,100.00
2022-09-09T06:38:03.899Z,100.00
2022-09-09T06:40:30.703Z,100.00
2022-09-09T06:43:00.159Z,100.00
2022-09-09T06:45:25.959Z,100.00
2022-09-09T06:47:54.665Z,100.00
2022-09-09T06:50:21.121Z,100.00
2022-09-09T06:52:48.060Z,100.00
2022-09-09T06:55:16.059Z,100.00
2022-09-09T06:57:41.775Z,100.00
2022-09-09T07:00:08.361Z,100.00
2022-09-09T07:02:39.086Z,100.00
2022-09-09T07:05:05.295Z,100.00
2022-09-09T07:07:31.078Z,100.00
2022-09-09T07:09:56.807Z,100.00
2022-09-09T07:12:22.560Z,100.00
2022-09-09T07:14:48.328Z,100.00
2022-09-09T07:17:14.689Z,100.00
2022-09-09T07:19:40.460Z,100.00
2022-09-09T07:22:06.635Z,100.00
2022-09-09T07:24:32.364Z,100.00
2022-09-09T07:26:59.858Z,100.00
2022-09-09T07:29:25.650Z,100.00
2022-09-09T07:31:51.975Z,100.00
2022-09-09T07:34:18.694Z,100.00
2022-09-09T07:36:44.540Z,100.00
2022-09-09T07:39:17.577Z,100.00
2022-09-09T07:41:46.161Z,100.00
2022-09-09T07:44:17.467Z,100.00
2022-09-09T07:46:45.435Z,100.00
2022-09-09T07:49:11.545Z,100.00
2022-09-09T07:51:40.895Z,100.00
2022-09-09T07:54:12.197Z,100.00
2022-09-09T07:56:40.208Z,100.00
2022-09-09T07:59:06.809Z,100.00
2022-09-09T08:01:39.463Z,100.00
2022-09-09T08:04:08.264Z,100.00
2022-09-09T08:06:40.790Z,100.00
2022-09-09T08:09:07.833Z,100.00
2022-09-09T08:11:38.593Z,100.00
2022-09-09T08:14:06.372Z,100.00
2022-09-09T08:16:36.641Z,100.00
2022-09-09T08:19:03.442Z,100.00
2022-09-09T08:21:31.969Z,100.00
2022-09-09T08:24:00.207Z,100.00
2022-09-09T08:26:29.189Z,100.00
2022-09-09T08:28:57.410Z,100.00
2022-09-09T08:31:28.625Z,100.00
2022-09-09T08:33:56.057Z,100.00
2022-09-09T08:36:25.839Z,100.00
2022-09-09T08:38:56.767Z,100.00
2022-09-09T08:41:22.481Z,100.00
2022-09-09T08:43:51.277Z,100.00
2022-09-09T08:47:10.633Z,100.00
2022-09-09T08:50:02.433Z,100.00
2022-09-09T08:52:39.249Z,100.00
2022-09-09T08:55:10.888Z,100.00
2022-09-09T08:57:36.763Z,100.00
2022-09-09T09:00:03.916Z,100.00
2022-09-09T09:02:55.103Z,100.00
2022-09-09T09:05:36.333Z,100.00
2022-09-09T09:08:10.928Z,100.00
2022-09-09T09:10:48.122Z,99.76
2022-09-09T09:13:24.374Z,100.00
2022-09-09T09:15:59.740Z,100.00
2022-09-09T09:18:27.261Z,100.00
2022-09-09T09:21:45.143Z,100.00
2022-09-09T09:24:32.685Z,100.00
2022-09-09T09:27:11.973Z,100.00
2022-09-09T09:29:58.015Z,100.00
2022-09-09T09:32:31.555Z,100.00
2022-09-09T09:34:59.520Z,100.00
2022-09-09T09:40:33.487Z,100.00
2022-09-09T09:43:08.110Z,100.00
2022-09-09T09:46:06.796Z,100.00
2022-09-09T09:48:34.934Z,96.47
2022-09-09T09:51:10.739Z,96.40
2022-09-09T09:53:39.120Z,93.55
2022-09-09T09:56:11.659Z,94.51
2022-09-09T09:58:46.440Z,89.24
2022-09-09T10:01:38.383Z,84.35
2022-09-09T10:04:23.423Z,84.40
2022-09-09T10:06:50.096Z,85.43
2022-09-09T10:09:33.221Z,83.88
2022-09-09T10:12:26.390Z,86.10
2022-09-09T10:15:06.333Z,86.78
2022-09-09T10:18:03.106Z,83.46
2022-09-09T10:21:10.397Z,79.78
2022-09-09T10:23:54.458Z,77.77
2022-09-09T10:26:29.183Z,73.51
2022-09-09T10:29:17.236Z,73.46
2022-09-09T10:31:57.163Z,73.10
2022-09-09T10:34:41.415Z,70.00
2022-09-09T10:37:45.098Z,67.25
2022-09-09T10:40:42.779Z,68.49
2022-09-09T10:43:27.330Z,69.78
2022-09-09T10:46:06.776Z,72.20
2022-09-09T10:49:10.157Z,74.69
2022-09-09T10:52:18.592Z,81.84
2022-09-09T10:55:09.530Z,82.25
2022-09-09T10:57:50.606Z,85.53
2022-09-09T11:00:19.808Z,85.90
2022-09-09T11:02:52.389Z,85.80
2022-09-09T11:05:29.318Z,83.63
2022-09-09T11:08:06.513Z,83.37
2022-09-09T11:10:39.544Z,83.27
2022-09-09T11:13:16.040Z,82.57
2022-09-09T11:15:47.087Z,80.88
2022-09-09T11:18:38.043Z,81.81
2022-09-09T11:21:10.702Z,80.24
2022-09-09T11:23:44.211Z,75.52
2022-09-09T11:26:18.132Z,70.43
2022-09-09T11:29:18.824Z,66.08
2022-09-09T11:32:29.543Z,64.13
2022-09-09T11:35:00.805Z,61.86
2022-09-09T11:37:32.697Z,60.71
2022-09-09T11:40:19.482Z,64.25
2022-09-09T11:42:48.306Z,70.56
2022-09-09T11:45:25.978Z,72.83
2022-09-09T11:47:54.059Z,74.28
2022-09-09T11:50:19.735Z,75.03
2022-09-09T11:52:48.216Z,77.64
2022-09-09T11:55:29.859Z,71.90
2022-09-09T11:58:00.432Z,63.99
2022-09-09T12:00:55.181Z,63.34
2022-09-09T12:03:40.084Z,62.02
2022-09-09T12:06:41.596Z,63.18
2022-09-09T12:09:27.689Z,61.58
2022-09-09T12:12:06.134Z,61.43
2022-09-09T12:14:37.405Z,60.87
2022-09-09T12:17:30.903Z,61.22
2022-09-09T12:20:17.797Z,61.53
2022-09-09T12:23:11.368Z,59.21
2022-09-09T12:26:02.835Z,61.83
2022-09-09T12:28:50.977Z,62.80
2022-09-09T12:31:34.998Z,60.67
2022-09-09T12:34:23.414Z,60.61
2022-09-09T12:37:06.155Z,64.25
2022-09-09T12:39:38.175Z,65.91
2022-09-09T12:42:04.267Z,65.31
2022-09-09T12:44:32.564Z,66.20
2022-09-09T12:47:02.664Z,72.89
2022-09-09T12:49:36.753Z,79.11
2022-09-09T12:52:06.760Z,79.06
2022-09-09T12:54:37.315Z,80.64
2022-09-09T12:57:04.673Z,79.32
2022-09-09T12:59:51.472Z,74.79
2022-09-09T13:02:26.742Z,69.21
2022-09-09T13:04:53.213Z,65.63
2022-09-09T13:07:20.063Z,63.86
2022-09-09T13:09:47.339Z,61.40
2022-09-09T13:12:17.709Z,63.40
2022-09-09T13:14:46.944Z,60.14
2022-09-09T13:17:20.928Z,59.42
2022-09-09T13:19:47.152Z,60.86
2022-09-09T13:22:37.308Z,60.93
2022-09-09T13:25:19.625Z,60.46
2022-09-09T13:28:21.952Z,59.33
2022-09-09T13:31:03.250Z,59.36
2022-09-09T13:33:39.384Z,59.17
2022-09-09T13:36:08.099Z,59.32
2022-09-09T13:38:51.102Z,58.90
2022-09-09T13:41:21.784Z,59.77
2022-09-09T13:43:48.479Z,60.37
2022-09-09T13:46:43.870Z,61.64
2022-09-09T13:49:11.122Z,62.09
2022-09-09T13:51:39.840Z,61.89
2022-09-09T13:54:09.744Z,62.30
2022-09-09T13:56:38.058Z,61.59
2022-09-09T13:59:09.848Z,60.82
2022-09-09T14:01:36.045Z,61.95
2022-09-09T14:04:02.165Z,61.17
2022-09-09T14:06:29.441Z,61.09
2022-09-09T14:08:55.282Z,61.85
2022-09-09T14:11:21.687Z,58.21
2022-09-09T14:13:50.129Z,58.04
2022-09-09T14:16:17.728Z,57.57
2022-09-09T14:18:44.769Z,59.91
2022-09-09T14:21:11.643Z,62.03
2022-09-09T14:23:38.394Z,64.60
2022-09-09T14:26:07.999Z,65.50
2022-09-09T14:28:54.484Z,66.57
2022-09-09T14:31:21.326Z,78.62
2022-09-09T14:33:47.439Z,86.76
2022-09-09T14:36:13.273Z,95.83
2022-09-09T14:38:39.796Z,100.00
2022-09-09T14:41:17.815Z,100.00
2022-09-09T14:43:44.862Z,100.00
2022-09-09T14:46:18.854Z,100.00
2022-09-09T14:48:45.509Z,100.00
2022-09-09T14:51:15.456Z,100.00
2022-09-09T14:53:42.412Z,100.00
2022-09-09T14:56:11.102Z,100.00
2022-09-09T14:58:38.234Z,100.00
2022-09-09T15:01:05.683Z,100.00
2022-09-09T15:03:31.487Z,100.00
2022-09-09T15:05:58.599Z,100.00
2022-09-09T15:08:26.258Z,100.00
2022-09-09T15:10:59.918Z,100.00
2022-09-09T15:13:25.738Z,100.00
2022-09-09T15:15:52.191Z,99.50
2022-09-09T15:18:18.043Z,100.00
2022-09-09T15:20:47.964Z,96.83
2022-09-09T15:23:14.709Z,96.83
2022-09-09T15:25:56.779Z,95.34
2022-09-09T15:28:22.877Z,93.71
2022-09-09T15:30:52.940Z,95.96
2022-09-09T15:33:22.773Z,97.35
2022-09-09T15:35:49.819Z,97.35
2022-09-09T15:38:16.951Z,98.40
2022-09-09T15:40:45.171Z,98.47
2022-09-09T15:43:11.073Z,96.45
2022-09-09T15:45:37.573Z,98.29
2022-09-09T15:48:04.462Z,99.67
2022-09-09T15:50:33.264Z,98.92
2022-09-09T15:52:59.967Z,100.00
2022-09-09T15:55:25.783Z,100.00
2022-09-09T15:57:53.040Z,100.00
2022-09-09T16:00:23.004Z,100.00
2022-09-09T16:02:49.342Z,100.00
2022-09-09T16:05:15.549Z,100.00
2022-09-09T16:07:42.570Z,100.00
2022-09-09T16:10:09.086Z,100.00
2022-09-09T16:12:35.190Z,100.00
2022-09-09T16:15:01.467Z,100.00
2022-09-09T16:17:27.923Z,100.00
2022-09-09T16:19:54.485Z,100.00
2022-09-09T16:22:20.718Z,100.00
2022-09-09T16:24:46.474Z,100.00
2022-09-09T16:27:12.298Z,100.00
2022-09-09T16:29:38.017Z,100.00
2022-09-09T16:32:06.767Z,100.00
2022-09-09T16:34:33.719Z,100.00
2022-09-09T16:36:59.592Z,100.00
2022-09-09T16:39:25.382Z,100.00
2022-09-09T16:41:52.487Z,100.00
2022-09-09T16:44:19.498Z,100.00
2022-09-09T16:46:48.828Z,100.00
2022-09-09T16:49:16.093Z,100.00
2022-09-09T16:51:44.908Z,100.00
2022-09-09T16:54:14.078Z,100.00
2022-09-09T16:56:41.867Z,100.00
2022-09-09T16:59:13.758Z,100.00
2022-09-09T17:01:41.418Z,100.00
2022-09-09T17:04:11.034Z,100.00
2022-09-09T17:06:38.314Z,100.00
2022-09-09T17:09:07.388Z,100.00
2022-09-09T17:11:33.844Z,100.00
2022-09-09T17:14:00.492Z,100.00
2022-09-09T17:16:29.244Z,100.00
2022-09-09T17:18:57.097Z,100.00
2022-09-09T17:21:27.986Z,100.00
2022-09-09T17:23:55.395Z,100.00
2022-09-09T17:26:23.142Z,100.00
2022-09-09T17:28:49.700Z,100.00
2022-09-09T17:31:18.213Z,100.00
2022-09-09T17:33:48.988Z,100.00
2022-09-09T17:36:16.887Z,100.00
2022-09-09T17:38:43.359Z,100.00
2022-09-09T17:41:34.124Z,100.00
2022-09-09T17:44:04.056Z,100.00
2022-09-09T17:46:31.947Z,100.00
2022-09-09T17:49:02.452Z,100.00
2022-09-09T17:51:30.557Z,100.00
2022-09-09T17:53:59.727Z,100.00
2022-09-09T17:56:28.750Z,100.00
2022-09-09T17:58:54.729Z,100.00
2022-09-09T18:01:23.729Z,100.00
2022-09-09T18:03:50.518Z,100.00
2022-09-09T18:06:30.054Z,100.00
2022-09-09T18:08:58.276Z,100.00
2022-09-09T18:11:27.488Z,100.00
2022-09-09T18:13:55.688Z,100.00
2022-09-09T18:16:24.043Z,100.00
2022-09-09T18:18:51.120Z,100.00
2022-09-09T18:21:18.627Z,100.00
2022-09-09T18:23:48.737Z,100.00
2022-09-09T18:26:17.163Z,100.00
2022-09-09T18:28:47.266Z,100.00
2022-09-09T18:31:16.554Z,100.00
2022-09-09T18:33:45.266Z,100.00
2022-09-09T18:36:14.984Z,100.00
2022-09-09T18:38:41.837Z,100.00
2022-09-09T18:41:22.007Z,100.00
2022-09-09T18:43:50.037Z,100.00
2022-09-09T18:46:17.475Z,100.00
2022-09-09T18:48:47.390Z,100.00
2022-09-09T18:51:15.611Z,100.00
2022-09-09T18:53:42.161Z,100.00
2022-09-09T18:56:11.751Z,100.00
2022-09-09T18:58:38.832Z,100.00
2022-09-09T19:01:09.339Z,100.00
2022-09-09T19:03:36.235Z,100.00
2022-09-09T19:06:08.778Z,100.00
2022-09-09T19:08:36.327Z,100.00
2022-09-09T19:11:04.380Z,100.00
2022-09-09T19:13:31.414Z,100.00
2022-09-09T19:16:05.518Z,100.00
2022-09-09T19:18:31.749Z,100.00
2022-09-09T19:21:11.163Z,100.00
2022-09-09T19:23:38.193Z,100.00
2022-09-09T19:26:07.542Z,100.00
2022-09-09T19:28:35.096Z,100.00
2022-09-09T19:31:05.727Z,100.00
2022-09-09T19:33:32.642Z,100.00
2022-09-09T19:36:02.117Z,100.00
2022-09-09T19:38:31.512Z,100.00
2022-09-09T19:41:04.419Z,100.00
2022-09-09T19:43:31.822Z,100.00
2022-09-09T19:46:01.860Z,100.00
2022-09-09T19:48:31.105Z,100.00
2022-09-09T19:51:15.797Z,100.00
2022-09-09T19:53:55.448Z,100.00
2022-09-09T19:56:24.206Z,100.00
2022-09-09T19:58:51.005Z,100.00
2022-09-09T20:01:22.518Z,100.00
2022-09-09T20:03:51.497Z,100.00
2022-09-09T20:06:20.594Z,100.00
2022-09-09T20:08:47.467Z,100.00
2022-09-09T20:11:15.856Z,100.00
2022-09-09T20:13:42.684Z,100.00
2022-09-09T20:16:12.208Z,100.00
2022-09-09T20:18:43.964Z,100.00
2022-09-09T20:21:21.742Z,100.00
2022-09-09T20:23:50.071Z,100.00
2022-09-09T20:26:20.458Z,100.00
2022-09-09T20:28:50.118Z,100.00
2022-09-09T20:31:21.359Z,100.00
2022-09-09T20:33:48.230Z,100.00
2022-09-09T20:36:20.283Z,100.00
2022-09-09T20:38:48.906Z,100.00
2022-09-09T20:41:17.990Z,100.00
2022-09-09T20:43:52.528Z,100.00
2022-09-09T20:46:20.798Z,100.00
2022-09-09T20:48:48.252Z,100.00
2022-09-09T20:51:16.498Z,100.00
2022-09-09T20:53:42.958Z,100.00
2022-09-09T20:56:09.419Z,100.00
2022-09-09T20:58:35.452Z,100.00
2022-09-09T21:01:03.413Z,100.00
2022-09-09T21:03:32.603Z,100.00
2022-09-09T21:05:59.631Z,100.00
2022-09-09T21:08:29.530Z,100.00
2022-09-09T21:10:56.073Z,100.00
2022-09-09T21:13:23.307Z,100.00
2022-09-09T21:15:50.795Z,100.00
2022-09-09T21:18:17.815Z,100.00
2022-09-09T21:20:44.626Z,100.00
2022-09-09T21:23:14.578Z,100.00
2022-09-09T21:25:43.879Z,100.00
2022-09-09T21:28:10.630Z,100.00
2022-09-09T21:30:44.073Z,100.00
2022-09-09T21:33:10.627Z,100.00
2022-09-09T21:35:38.839Z,100.00
2022-09-09T21:38:12.202Z,100.00
2022-09-09T21:40:39.595Z,100.00
2022-09-09T21:43:07.473Z,100.00
2022-09-09T21:45:40.898Z,100.00
2022-09-09T21:48:09.845Z,100.00
2022-09-09T21:50:40.164Z,100.00
2022-09-09T21:53:09.499Z,100.00
2022-09-09T21:55:37.189Z,100.00
2022-09-09T21:58:04.580Z,100.00
2022-09-09T22:00:31.021Z,100.00
2022-09-09T22:02:58.835Z,100.00
2022-09-09T22:05:25.211Z,100.00
2022-09-09T22:07:52.496Z,100.00
2022-09-09T22:10:22.373Z,100.00
2022-09-09T22:12:48.957Z,100.00
2022-09-09T22:15:15.139Z,100.00
2022-09-09T22:17:41.256Z,100.00
2022-09-09T22:20:08.070Z,100.00
2022-09-09T22:22:33.934Z,100.00
2022-09-09T22:24:59.751Z,100.00
2022-09-09T22:27:25.559Z,100.00
2022-09-09T22:29:51.398Z,100.00
2022-09-09T22:32:17.521Z,100.00
2022-09-09T22:34:43.409Z,100.00
2022-09-09T22:37:09.361Z,100.00
2022-09-09T22:39:35.195Z,100.00
2022-09-09T22:42:01.062Z,100.00
2022-09-09T22:44:27.120Z,100.00
2022-09-09T22:46:54.806Z,100.00
2022-09-09T22:49:21.629Z,100.00
2022-09-09T22:51:48.060Z,100.00
2022-09-09T22:54:14.185Z,100.00
2022-09-09T22:56:40.034Z,100.00
2022-09-09T22:59:06.356Z,100.00
2022-09-09T23:01:32.575Z,100.00
2022-09-09T23:04:02.039Z,100.00
2022-09-09T23:06:28.765Z,100.00
2022-09-09T23:08:57.283Z,100.00
2022-09-09T23:11:30.860Z,100.00
2022-09-09T23:13:59.897Z,100.00
2022-09-09T23:16:38.253Z,100.00
2022-09-09T23:19:11.204Z,100.00
2022-09-09T23:21:38.712Z,100.00
2022-09-09T23:24:06.114Z,100.00
2022-09-09T23:26:32.270Z,100.00
2022-09-09T23:28:59.829Z,100.00
2022-09-09T23:31:28.696Z,100.00
2022-09-09T23:33:54.910Z,100.00
2022-09-09T23:36:28.776Z,100.00
2022-09-09T23:38:55.859Z,100.00
2022-09-09T23:41:22.331Z,100.00
2022-09-09T23:43:48.721Z,100.00
2022-09-09T23:46:16.901Z,100.00
2022-09-09T23:48:43.217Z,100.00
2022-09-09T23:51:16.671Z,100.00
2022-09-09T23:53:44.807Z,100.00
2022-09-09T23:56:11.453Z,100.00
2022-09-09T23:58:37.463Z,100.00
